1951 Tropical Cyclone NOT_NAMED (1951083S08159)


IBTrACS version v04r00. Visit IBTrACS website for data access.
Please direct all questions to the IBTrACS Q and A forum

Storm track - Intensity - Wind Radii - Intensity Data - Source Data - All data

Summary Information

Storm ID 1951083S08159
Start Mar 23 23Z
Landfall Mar 25 00Z
Max Intensity 35 kt (Mar 30 00Z), 994 mb (Mar 31 23Z)
End Mar 31 23Z
ATCF IDs ,SH251951
Track status Best track data.

Storm track plot

Map of storm track

Intensity plots

Map of storm track

Radial wind information

No radial wind information for this storm


Position and Intensity Table

BASIN ISO_TIME_________ NATURE LAT LON WMO PRES BOM PRES DS824 WIND DS824 PRES
degrees north degrees east mb mb kts mb
SP 1951-03-23 23:00:00 NR -7.50 158.50 1004 1004
SP 1951-03-24 00:00:00 TS -7.53 158.45 20 1004
SP 03:00:00 TS -7.66 158.42
SP 06:00:00 TS -7.78 158.39
SP 09:00:00 TS -7.88 158.33
SP 11:00:00 TS -7.95 158.29
SP 12:00:00 TS -7.99 158.27
SP 15:00:00 TS -8.11 158.22
SP 18:00:00 TS -8.24 158.14
SP 21:00:00 TS -8.35 158.02
SP 23:00:00 TS -8.42 157.93 1000 1000
SP 1951-03-25 00:00:00 TS -8.46 157.88 30 1000
SP 03:00:00 TS -8.56 157.74
SP 06:00:00 TS -8.67 157.57
SP 09:00:00 TS -8.78 157.39
SP 11:00:00 TS -8.85 157.26
SP 12:00:00 TS -8.89 157.20
SP 15:00:00 TS -8.99 157.02
SP 18:00:00 TS -9.10 156.85
SP 21:00:00 TS -9.18 156.66
SP 23:00:00 TS -9.24 156.54 1000 1000
SP 1951-03-26 00:00:00 TS -9.27 156.48 30 1000
SP 03:00:00 TS -9.39 156.32
SP 06:00:00 TS -9.53 156.17
SP 09:00:00 TS -9.68 156.03
SP 11:00:00 TS -9.78 155.95
SP 12:00:00 TS -9.83 155.90
SP 15:00:00 TS -9.95 155.76
SP 18:00:00 TS -10.09 155.61
SP 21:00:00 TS -10.29 155.46
SP 23:00:00 TS -10.45 155.35 1000 1000
SP 1951-03-27 00:00:00 TS -10.53 155.30 30 1000
SP 03:00:00 TS -10.82 155.11
SP 06:00:00 TS -11.13 154.91
SP 09:00:00 TS -11.45 154.71
SP 11:00:00 TS -11.67 154.58
SP 12:00:00 TS -11.78 154.52
SP 15:00:00 TS -12.11 154.37
SP 18:00:00 TS -12.44 154.23
SP 21:00:00 TS -12.78 154.05
SP 23:00:00 TS -13.00 153.92 1000 1000
SP 1951-03-28 00:00:00 TS -13.10 153.85 30 1000
SP 03:00:00 TS -13.42 153.65
SP 06:00:00 TS -13.74 153.44
SP 09:00:00 TS -14.05 153.23
SP 11:00:00 TS -14.27 153.10
SP 12:00:00 TS -14.39 153.03
SP 15:00:00 TS -14.78 152.83
SP 18:00:00 TS -15.17 152.64
SP 21:00:00 TS -15.49 152.46
SP 23:00:00 TS -15.67 152.37 999 999
SP 1951-03-29 00:00:00 TS -15.75 152.32 30 999
SP 03:00:00 TS -15.92 152.22
SP 06:00:00 TS -16.05 152.15
SP 09:00:00 TS -16.18 152.12
SP 11:00:00 TS -16.26 152.11
SP 12:00:00 TS -16.30 152.11
SP 15:00:00 TS -16.42 152.10
SP 18:00:00 TS -16.56 152.16
SP 21:00:00 TS -16.73 152.29
SP 23:00:00 TS -16.88 152.44 998 998
SP 1951-03-30 00:00:00 TS -16.99 152.54 35 998
SP 03:00:00 TS -17.40 152.96
SP 06:00:00 TS -17.87 153.49
SP 09:00:00 TS -18.36 154.08
SP 11:00:00 TS -18.67 154.49
SP 12:00:00 TS -18.80 154.71
SP 15:00:00 TS -19.15 155.36
SP 18:00:00 TS -19.46 156.04
SP 21:00:00 TS -19.78 156.72
SP 23:00:00 TS -20.00 157.18 996 996
SP 1951-03-31 00:00:00 TS -20.10 157.41 35 996
SP 03:00:00 TS -20.42 158.11
SP 06:00:00 TS -20.76 158.81
SP 09:00:00 TS -21.10 159.47
SP 11:00:00 TS -21.36 159.89
SP 12:00:00 TS -21.50 160.11
SP 15:00:00 TS -22.02 160.75
SP 18:00:00 TS -22.60 161.39
SP 21:00:00 NR -23.24 162.05
SP 23:00:00 NR -23.65 162.45 994 994

Source Information

Agency Information
USA bsh251951.txt
TOKYO
CMA
HKO
NEWDELHI
REUNION
BOM IDCKMSTM0S.csv:Line=1704:unnamed
NADI
WELLINGTON
DS824 aus_area.dat:185:NOT NAMED
TD9636 cons_worldwide_trop_cyclone_18710101-19891231-006:Line=3811
TD9635
NEUMANN
MLC

All available IBTrACS Data

SEASON BASIN SUBBASIN ISO_TIME_________ NATURE LAT LON WMO PRES WMO AGENCY DIST2LAND LANDFALL IFLAG USA AGENCY USA ATCF_ID USA LAT USA LON USA SSHS BOM LAT BOM LON BOM PRES BOM PRES_METHOD DS824 LAT DS824 LON DS824 STAGE DS824 WIND DS824 PRES TD9636 LAT TD9636 LON TD9636 STAGE STORM SPEED STORM DIR
Year degrees north degrees east mb km km degrees north degrees east 1 degrees north degrees east mb degrees north degrees east kts mb degrees north degrees east kts degrees
1951 SP EA 1951-03-23 23:00:00 NR -7.50 158.50 1004 bom 11 11 ______O___O___ -1 -7.40 158.80 1004 -7.60 158.20 2 4 239
1951 SP EA 1951-03-24 00:00:00 TS -7.53 158.45 11 11 O_____P__OP___ jtwc_sh SH251951 -7.60 158.20 -1 -7.43 158.78 -7.40 158.80 TC 20 1004 -7.64 158.19 2 3 206
1951 SP EA 03:00:00 TS -7.66 158.42 15 15 P_____P__PP___ SH251951 -7.76 158.21 -1 -7.52 158.74 -7.49 158.74 TC -7.76 158.17 2 3 195
1951 SP EA 06:00:00 TS -7.78 158.39 22 22 O_____P__PP___ jtwc_sh SH251951 -7.90 158.20 -1 -7.62 158.68 -7.59 158.67 TC -7.89 158.15 2 2 201
1951 SP EA 09:00:00 TS -7.88 158.33 34 34 P_____P__PP___ SH251951 -8.00 158.16 -1 -7.71 158.63 -7.68 158.60 TC -8.01 158.12 2 2 208
1951 SP EA 11:00:00 TS -7.95 158.29 39 39 P_____P__PO___ SH251951 -8.06 158.12 -1 -7.78 158.58 -7.75 158.55 TC -8.10 158.10 2 2 208
1951 SP EA 12:00:00 TS -7.99 158.27 39 39 O_____P__PP___ jtwc_sh SH251951 -8.10 158.10 -1 -7.81 158.56 -7.78 158.52 TC -8.14 158.09 2 3 207
1951 SP EA 15:00:00 TS -8.11 158.22 49 34 P_____P__PP___ SH251951 -8.25 158.07 -1 -7.91 158.48 -7.88 158.44 TC -8.27 158.04 2 3 208
1951 SP EA 18:00:00 TS -8.24 158.14 34 22 O_____P__PP___ jtwc_sh SH251951 -8.40 158.00 -1 -8.02 158.39 -7.98 158.34 TC -8.40 157.97 2 3 219
1951 SP EA 21:00:00 TS -8.35 158.02 15 11 P_____P__PP___ SH251951 -8.51 157.87 -1 -8.13 158.28 -8.09 158.23 TC -8.52 157.88 2 3 229
1951 SP EA 23:00:00 TS -8.42 157.93 1000 bom 11 11 P_____O__PO___ SH251951 -8.57 157.76 -1 -8.20 158.20 1000 -8.16 158.14 TC -8.60 157.80 2 4 233
1951 SP EA 1951-03-25 00:00:00 TS -8.46 157.88 0 0 O_____P__OP___ jtwc_sh SH251951 -8.60 157.70 -1 -8.24 158.16 -8.20 158.10 TC 30 1000 -8.64 157.76 2 4 234
1951 SP EA 03:00:00 TS -8.56 157.74 11 11 P_____P__PP___ SH251951 -8.70 157.56 -1 -8.36 158.01 -8.31 157.96 TC -8.75 157.60 2 4 235
1951 SP EA 06:00:00 TS -8.67 157.57 24 24 O_____P__PP___ jtwc_sh SH251951 -8.80 157.40 -1 -8.48 157.85 -8.43 157.80 TC -8.85 157.42 2 4 238
1951 SP EA 09:00:00 TS -8.78 157.39 47 47 P_____P__PP___ SH251951 -8.90 157.20 -1 -8.60 157.67 -8.55 157.63 TC -8.94 157.23 2 4 240
1951 SP EA 11:00:00 TS -8.85 157.26 62 62 P_____P__PO___ SH251951 -8.97 157.06 -1 -8.69 157.55 -8.64 157.51 TC -9.00 157.10 2 4 240
1951 SP EA 12:00:00 TS -8.89 157.20 67 67 O_____P__PP___ jtwc_sh SH251951 -9.00 157.00 -1 -8.73 157.49 -8.68 157.45 TC -9.02 157.04 2 4 238
1951 SP EA 15:00:00 TS -8.99 157.02 81 81 P_____P__PP___ SH251951 -9.11 156.85 -1 -8.86 157.30 -8.81 157.26 TC -9.09 156.86 2 4 238
1951 SP EA 18:00:00 TS -9.10 156.85 95 95 O_____P__PP___ jtwc_sh SH251951 -9.20 156.70 -1 -8.99 157.11 -8.93 157.07 TC -9.16 156.68 2 4 242
1951 SP EA 21:00:00 TS -9.18 156.66 114 114 P_____P__PP___ SH251951 -9.24 156.50 -1 -9.11 156.92 -9.07 156.88 TC -9.24 156.51 2 4 245
1951 SP EA 23:00:00 TS -9.24 156.54 1000 bom 126 126 P_____O__PO___ SH251951 -9.27 156.36 -1 -9.20 156.80 1000 -9.16 156.76 TC -9.30 156.40 2 4 243
1951 SP EA 1951-03-26 00:00:00 TS -9.27 156.48 135 135 O_____P__OP___ jtwc_sh SH251951 -9.30 156.30 -1 -9.23 156.75 -9.20 156.70 TC 30 1000 -9.34 156.35 2 4 236
1951 SP EA 03:00:00 TS -9.39 156.32 158 158 P_____P__PP___ SH251951 -9.43 156.14 -1 -9.32 156.58 -9.30 156.54 TC -9.47 156.19 2 4 231
1951 SP EA 06:00:00 TS -9.53 156.17 173 173 O_____P__PP___ jtwc_sh SH251951 -9.60 156.00 -1 -9.41 156.42 -9.40 156.38 TC -9.62 156.04 2 4 224
1951 SP EA 09:00:00 TS -9.68 156.03 204 204 P_____P__PP___ SH251951 -9.81 155.90 -1 -9.50 156.26 -9.50 156.22 TC -9.79 155.89 2 4 220
1951 SP EA 11:00:00 TS -9.78 155.95 220 220 P_____P__PO___ SH251951 -9.94 155.84 -1 -9.56 156.16 -9.58 156.11 TC -9.90 155.80 2 4 221
1951 SP EA 12:00:00 TS -9.83 155.90 220 220 O_____P__PP___ jtwc_sh SH251951 -10.00 155.80 -1 -9.60 156.10 -9.61 156.06 TC -9.95 155.76 2 4 229
1951 SP EA 15:00:00 TS -9.95 155.76 244 244 P_____P__PP___ SH251951 -10.09 155.66 -1 -9.72 155.94 -9.75 155.90 TC -10.10 155.64 2 4 229
1951 SP EA 18:00:00 TS -10.09 155.61 267 267 O_____P__PP___ jtwc_sh SH251951 -10.20 155.50 -1 -9.87 155.78 -9.90 155.73 TC -10.26 155.53 2 4 221
1951 SP EA 21:00:00 TS -10.29 155.46 291 291 P_____P__PP___ SH251951 -10.42 155.36 -1 -10.06 155.61 -10.08 155.57 TC -10.45 155.40 2 5 215
1951 SP EA 23:00:00 TS -10.45 155.35 1000 bom 307 307 P_____O__PO___ SH251951 -10.60 155.26 -1 -10.20 155.50 1000 -10.22 155.46 TC -10.60 155.30 2 6 212
1951 SP EA 1951-03-27 00:00:00 TS -10.53 155.30 322 322 O_____P__OP___ jtwc_sh SH251951 -10.70 155.20 -1 -10.29 155.44 -10.30 155.40 TC 30 1000 -10.68 155.24 2 7 213
1951 SP EA 03:00:00 TS -10.82 155.11 362 362 P_____P__PP___ SH251951 -10.99 155.01 -1 -10.57 155.26 -10.58 155.22 TC -10.96 155.05 2 7 213
1951 SP EA 06:00:00 TS -11.13 154.91 402 402 O_____P__PP___ jtwc_sh SH251951 -11.30 154.80 -1 -10.89 155.08 -10.89 155.04 TC -11.27 154.84 2 7 212
1951 SP EA 09:00:00 TS -11.45 154.71 448 440 P_____P__PP___ SH251951 -11.60 154.59 -1 -11.24 154.89 -11.23 154.85 TC -11.59 154.63 2 8 211
1951 SP EA 11:00:00 TS -11.67 154.58 443 432 P_____P__PO___ SH251951 -11.80 154.46 -1 -11.48 154.77 -11.47 154.72 TC -11.80 154.50 2 8 209
1951 SP EA 12:00:00 TS -11.78 154.52 436 429 O_____P__PP___ jtwc_sh SH251951 -11.90 154.40 -1 -11.60 154.70 -11.60 154.66 TC -11.90 154.45 2 7 205
1951 SP EA 15:00:00 TS -12.11 154.37 437 431 P_____P__PP___ SH251951 -12.20 154.30 -1 -11.98 154.51 -11.97 154.47 TC -12.20 154.29 2 7 203
1951 SP EA 18:00:00 TS -12.44 154.23 431 431 O_____P__PP___ jtwc_sh SH251951 -12.50 154.20 -1 -12.37 154.32 -12.35 154.28 TC -12.50 154.15 2 7 205
1951 SP EA 21:00:00 TS -12.78 154.05 444 435 P_____P__PP___ SH251951 -12.80 154.02 -1 -12.75 154.13 -12.73 154.09 TC -12.80 154.01 2 8 209
1951 SP EA 23:00:00 TS -13.00 153.92 1000 bom 440 440 P_____O__PO___ SH251951 -13.00 153.87 -1 -13.00 154.00 1000 -12.98 153.96 TC -13.00 153.90 2 8 210
1951 SP EA 1951-03-28 00:00:00 TS -13.10 153.85 446 438 O_____P__OP___ jtwc_sh SH251951 -13.10 153.80 -1 -13.12 153.93 -13.10 153.90 TC 30 1000 -13.10 153.84 2 8 212
1951 SP EA 03:00:00 TS -13.42 153.65 444 444 P_____P__PP___ SH251951 -13.40 153.60 -1 -13.48 153.71 -13.45 153.69 TC -13.38 153.65 2 8 212
1951 SP EA 06:00:00 TS -13.74 153.44 454 454 O_____P__PP___ jtwc_sh SH251951 -13.70 153.40 -1 -13.85 153.49 -13.80 153.47 TC -13.67 153.45 2 8 212
1951 SP EA 09:00:00 TS -14.05 153.23 476 476 P_____P__PP___ SH251951 -13.98 153.20 -1 -14.20 153.27 -14.14 153.27 TC -13.98 153.24 2 8 212
1951 SP EA 11:00:00 TS -14.27 153.10 489 489 P_____P__PO___ SH251951 -14.18 153.07 -1 -14.43 153.13 -14.36 153.13 TC -14.20 153.10 2 8 210
1951 SP EA 12:00:00 TS -14.39 153.03 493 493 O_____P__PP___ jtwc_sh SH251951 -14.30 153.00 -1 -14.54 153.06 -14.47 153.07 TC -14.33 153.03 2 9 207
1951 SP EA 15:00:00 TS -14.78 152.83 522 522 P_____P__PP___ SH251951 -14.75 152.80 -1 -14.86 152.88 -14.78 152.88 TC -14.76 152.80 2 9 206
1951 SP EA 18:00:00 TS -15.17 152.64 554 554 O_____P__PP___ jtwc_sh SH251951 -15.20 152.60 -1 -15.16 152.71 -15.08 152.72 TC -15.19 152.59 2 8 207
1951 SP EA 21:00:00 TS -15.49 152.46 582 578 P_____P__PP___ SH251951 -15.55 152.38 -1 -15.44 152.57 -15.35 152.59 TC -15.58 152.40 2 7 208
1951 SP EA 23:00:00 TS -15.67 152.37 999 bom 599 596 P_____O__PO___ SH251951 -15.73 152.25 -1 -15.60 152.50 999 -15.52 152.53 TC -15.80 152.30 2 6 208
1951 SP EA 1951-03-29 00:00:00 TS -15.75 152.32 596 596 O_____P__OP___ jtwc_sh SH251951 -15.80 152.20 -1 -15.66 152.45 -15.60 152.50 TC 30 999 -15.88 152.26 2 4 210
1951 SP EA 03:00:00 TS -15.92 152.22 609 600 P_____P__PP___ SH251951 -15.97 152.12 -1 -15.81 152.30 -15.77 152.37 TC -16.08 152.16 2 3 209
1951 SP EA 06:00:00 TS -16.05 152.15 600 576 O_____P__PP___ jtwc_sh SH251951 -16.10 152.10 -1 -15.93 152.18 -15.91 152.27 TC -16.22 152.11 2 3 202
1951 SP EA 09:00:00 TS -16.18 152.12 576 567 P_____P__PP___ SH251951 -16.25 152.09 -1 -16.03 152.10 -16.02 152.20 TC -16.33 152.09 2 3 192
1951 SP EA 11:00:00 TS -16.26 152.11 567 567 P_____P__PO___ SH251951 -16.35 152.10 -1 -16.09 152.08 -16.10 152.19 TC -16.40 152.10 2 2 190
1951 SP EA 12:00:00 TS -16.30 152.11 567 558 O_____P__PP___ jtwc_sh SH251951 -16.40 152.10 -1 -16.13 152.07 -16.14 152.18 TC -16.43 152.08 2 2 187
1951 SP EA 15:00:00 TS -16.42 152.10 558 547 P_____P__PP___ SH251951 -16.54 152.08 -1 -16.24 152.11 -16.26 152.22 TC -16.52 152.03 2 3 172
1951 SP EA 18:00:00 TS -16.56 152.16 547 539 O_____P__PP___ jtwc_sh SH251951 -16.70 152.10 -1 -16.37 152.22 -16.40 152.33 TC -16.64 152.04 2 4 150
1951 SP EA 21:00:00 TS -16.73 152.29 546 537 P_____P__PP___ SH251951 -16.85 152.18 -1 -16.55 152.41 -16.57 152.52 TC -16.82 152.15 2 5 140
1951 SP EA 23:00:00 TS -16.88 152.44 998 bom 537 536 P_____O__PO___ SH251951 -17.00 152.30 -1 -16.70 152.60 998 -16.72 152.70 TC -17.00 152.30 2 7 136
1951 SP EA 1951-03-30 00:00:00 TS -16.99 152.54 536 536 O_____P__OP___ jtwc_sh SH251951 -17.10 152.40 -1 -16.80 152.71 -16.80 152.80 TC 35 998 -17.13 152.40 2 11 136
1951 SP EA 03:00:00 TS -17.40 152.96 548 541 P_____P__PP___ SH251951 -17.56 152.83 -1 -17.14 153.13 -17.12 153.19 TC -17.61 152.82 2 13 134
1951 SP EA 06:00:00 TS -17.87 153.49 562 562 O_____P__PP___ jtwc_sh SH251951 -18.10 153.40 -1 -17.53 153.63 -17.49 153.67 TC -18.15 153.36 2 14 132
1951 SP EA 09:00:00 TS -18.36 154.08 570 568 P_____P__PP___ SH251951 -18.64 153.98 -1 -17.94 154.22 -17.89 154.23 TC -18.69 153.97 2 15 130
1951 SP EA 11:00:00 TS -18.67 154.49 572 571 P_____P__PO___ SH251951 -18.96 154.39 -1 -18.23 154.65 -18.18 154.65 TC -19.00 154.40 2 15 127
1951 SP EA 12:00:00 TS -18.80 154.71 579 578 O_____P__PP___ jtwc_sh SH251951 -19.10 154.60 -1 -18.38 154.87 -18.32 154.86 TC -19.11 154.60 2 14 121
1951 SP EA 15:00:00 TS -19.15 155.36 603 603 P_____P__PP___ SH251951 -19.39 155.24 -1 -18.83 155.56 -18.77 155.54 TC -19.40 155.22 2 14 118
1951 SP EA 18:00:00 TS -19.46 156.04 635 635 O_____P__PP___ jtwc_sh SH251951 -19.60 155.90 -1 -19.28 156.28 -19.22 156.25 TC -19.63 155.88 2 14 116
1951 SP EA 21:00:00 TS -19.78 156.72 659 659 P_____P__PP___ SH251951 -19.84 156.54 -1 -19.72 157.01 -19.66 156.97 TC -19.84 156.55 2 14 116
1951 SP EA 23:00:00 TS -20.00 157.18 996 bom 669 666 P_____O__PO___ SH251951 -20.01 156.98 -1 -20.00 157.50 996 -19.96 157.46 TC -20.00 157.00 2 14 116
1951 SP EA 1951-03-31 00:00:00 TS -20.10 157.41 673 615 O_____P__OP___ jtwc_sh SH251951 -20.10 157.20 -1 -20.12 157.73 -20.10 157.70 TC 35 996 -20.08 157.22 2 15 116
1951 SP EA 03:00:00 TS -20.42 158.11 615 543 P_____P__PP___ SH251951 -20.38 157.90 -1 -20.47 158.44 -20.52 158.41 TC -20.35 157.91 2 15 117
1951 SP EA 06:00:00 TS -20.76 158.81 544 484 O_____P__PP___ jtwc_sh SH251951 -20.70 158.60 -1 -20.83 159.15 -20.92 159.11 TC -20.65 158.59 2 14 118
1951 SP EA 09:00:00 TS -21.10 159.47 476 440 P_____P__PP___ SH251951 -21.01 159.26 -1 -21.22 159.85 -21.31 159.81 TC -21.01 159.26 2 14 121
1951 SP EA 11:00:00 TS -21.36 159.89 bom 443 426 P_____O__PO___ SH251951 -21.26 159.69 -1 -21.50 160.30 -21.57 160.27 TC -21.30 159.70 2 14 124
1951 SP MM 12:00:00 TS -21.50 160.11 426 391 O_____P__OP___ jtwc_sh SH251951 -21.40 159.90 -1 -21.65 160.52 -21.70 160.50 TC -21.46 159.92 2 16 130
1951 SP MM 15:00:00 TS -22.02 160.75 391 369 P_____P___P___ SH251951 -21.91 160.55 -1 -22.14 161.14 TC -22.00 160.55 2 16 133
1951 SP MM 18:00:00 TS -22.60 161.39 369 357 O_____P___P___ jtwc_sh SH251951 -22.50 161.20 -1 -22.67 161.74 TC -22.61 161.17 2 17 135
1951 SP MM 21:00:00 NR -23.24 162.05 351 347 ______P___P___ SH251951 -1 -23.22 162.32 TC -23.26 161.79 2 17 137
1951 SP MM 23:00:00 NR -23.65 162.45 994 bom 348 ______O___O___ SH251951 -1 -23.60 162.70 994 4 TC -23.70 162.20 2 16 138